sensor_id;sensor_type;location;lat;lon;timestamp;pressure;altitude;pressure_sealevel;temperature
18713;BMP280;9485;49.386;8.674;2023-04-03T00:03:16;101387.75;;;6.96
18713;BMP280;9485;49.386;8.674;2023-04-03T00:08:37;101384.34;;;6.89
18713;BMP280;9485;49.386;8.674;2023-04-03T00:13:59;101386.16;;;6.83
18713;BMP280;9485;49.386;8.674;2023-04-03T00:19:21;101388.06;;;6.73
18713;BMP280;9485;49.386;8.674;2023-04-03T00:24:41;101399.50;;;6.67
18713;BMP280;9485;49.386;8.674;2023-04-03T00:30:03;101411.41;;;6.58
18713;BMP280;9485;49.386;8.674;2023-04-03T00:35:26;101397.22;;;6.49
18713;BMP280;9485;49.386;8.674;2023-04-03T00:40:49;101398.56;;;6.45
18713;BMP280;9485;49.386;8.674;2023-04-03T00:46:09;101400.69;;;6.41
18713;BMP280;9485;49.386;8.674;2023-04-03T00:51:31;101405.13;;;6.38
18713;BMP280;9485;49.386;8.674;2023-04-03T00:56:54;101412.53;;;6.32
18713;BMP280;9485;49.386;8.674;2023-04-03T01:02:17;101404.22;;;6.29
18713;BMP280;9485;49.386;8.674;2023-04-03T01:07:40;101408.34;;;6.24
18713;BMP280;9485;49.386;8.674;2023-04-03T01:13:01;101408.13;;;6.19
18713;BMP280;9485;49.386;8.674;2023-04-03T01:18:24;101398.34;;;6.11
18713;BMP280;9485;49.386;8.674;2023-04-03T01:24:11;101395.09;;;5.96
18713;BMP280;9485;49.386;8.674;2023-04-03T01:29:33;101407.91;;;5.97
18713;BMP280;9485;49.386;8.674;2023-04-03T01:34:56;101412.38;;;5.95
18713;BMP280;9485;49.386;8.674;2023-04-03T01:40:17;101410.56;;;5.89
18713;BMP280;9485;49.386;8.674;2023-04-03T01:45:39;101366.88;;;5.59
18713;BMP280;9485;49.386;8.674;2023-04-03T01:51:01;101409.97;;;5.81
18713;BMP280;9485;49.386;8.674;2023-04-03T01:56:22;101419.16;;;5.82
18713;BMP280;9485;49.386;8.674;2023-04-03T02:01:43;101419.84;;;5.86
18713;BMP280;9485;49.386;8.674;2023-04-03T02:07:07;101410.03;;;5.94
18713;BMP280;9485;49.386;8.674;2023-04-03T02:12:28;101418.59;;;6.02
18713;BMP280;9485;49.386;8.674;2023-04-03T02:17:48;101420.66;;;6.14
18713;BMP280;9485;49.386;8.674;2023-04-03T02:23:11;101415.13;;;6.27
18713;BMP280;9485;49.386;8.674;2023-04-03T02:28:32;101426.34;;;6.39
18713;BMP280;9485;49.386;8.674;2023-04-03T02:33:52;101418.09;;;6.48
18713;BMP280;9485;49.386;8.674;2023-04-03T02:39:15;101401.03;;;6.55
18713;BMP280;9485;49.386;8.674;2023-04-03T02:44:36;101402.06;;;6.61
18713;BMP280;9485;49.386;8.674;2023-04-03T02:49:56;101395.69;;;6.61
18713;BMP280;9485;49.386;8.674;2023-04-03T02:55:19;101403.41;;;6.57
18713;BMP280;9485;49.386;8.674;2023-04-03T03:00:43;101396.97;;;6.44
18713;BMP280;9485;49.386;8.674;2023-04-03T03:06:07;101409.53;;;6.39
18713;BMP280;9485;49.386;8.674;2023-04-03T03:11:29;101395.81;;;6.29
18713;BMP280;9485;49.386;8.674;2023-04-03T03:16:50;101390.94;;;6.17
18713;BMP280;9485;49.386;8.674;2023-04-03T03:22:11;101394.81;;;6.07
18713;BMP280;9485;49.386;8.674;2023-04-03T03:27:33;101395.22;;;5.93
18713;BMP280;9485;49.386;8.674;2023-04-03T03:32:53;101406.28;;;5.84
18713;BMP280;9485;49.386;8.674;2023-04-03T03:38:14;101412.13;;;5.74
18713;BMP280;9485;49.386;8.674;2023-04-03T03:43:36;101404.69;;;5.67
18713;BMP280;9485;49.386;8.674;2023-04-03T03:48:59;101405.22;;;5.62
18713;BMP280;9485;49.386;8.674;2023-04-03T03:54:21;101418.97;;;5.57
18713;BMP280;9485;49.386;8.674;2023-04-03T03:59:44;101420.66;;;5.54
18713;BMP280;9485;49.386;8.674;2023-04-03T04:05:05;101422.75;;;5.50
18713;BMP280;9485;49.386;8.674;2023-04-03T04:10:26;101422.03;;;5.46
18713;BMP280;9485;49.386;8.674;2023-04-03T04:15:50;101423.34;;;5.42
18713;BMP280;9485;49.386;8.674;2023-04-03T04:21:10;101416.69;;;5.36
18713;BMP280;9485;49.386;8.674;2023-04-03T04:26:32;101420.81;;;5.31
18713;BMP280;9485;49.386;8.674;2023-04-03T04:31:55;101419.31;;;5.27
18713;BMP280;9485;49.386;8.674;2023-04-03T04:37:17;101418.63;;;5.23
18713;BMP280;9485;49.386;8.674;2023-04-03T04:42:40;101417.84;;;5.22
18713;BMP280;9485;49.386;8.674;2023-04-03T04:48:03;101416.69;;;5.20
18713;BMP280;9485;49.386;8.674;2023-04-03T04:53:24;101421.94;;;5.18
18713;BMP280;9485;49.386;8.674;2023-04-03T04:58:45;101427.97;;;5.17
18713;BMP280;9485;49.386;8.674;2023-04-03T05:04:07;101427.88;;;5.20
18713;BMP280;9485;49.386;8.674;2023-04-03T05:09:28;101430.59;;;5.23
18713;BMP280;9485;49.386;8.674;2023-04-03T05:14:49;101423.69;;;5.28
18713;BMP280;9485;49.386;8.674;2023-04-03T05:20:12;101434.41;;;5.33
18713;BMP280;9485;49.386;8.674;2023-04-03T05:25:34;101434.41;;;5.33
18713;BMP280;9485;49.386;8.674;2023-04-03T05:30:59;101434.31;;;5.36
18713;BMP280;9485;49.386;8.674;2023-04-03T05:36:27;101430.97;;;5.41
18713;BMP280;9485;49.386;8.674;2023-04-03T05:41:53;101433.69;;;5.45
18713;BMP280;9485;49.386;8.674;2023-04-03T05:47:15;101437.09;;;5.52
18713;BMP280;9485;49.386;8.674;2023-04-03T05:52:43;101437.19;;;5.65
18713;BMP280;9485;49.386;8.674;2023-04-03T05:58:05;101440.09;;;5.77
18713;BMP280;9485;49.386;8.674;2023-04-03T06:03:26;101444.91;;;5.93
18713;BMP280;9485;49.386;8.674;2023-04-03T06:08:49;101442.84;;;6.09
18713;BMP280;9485;49.386;8.674;2023-04-03T06:14:11;101445.53;;;6.28
18713;BMP280;9485;49.386;8.674;2023-04-03T06:19:32;101439.31;;;6.49
18713;BMP280;9485;49.386;8.674;2023-04-03T06:24:55;101454.41;;;6.80
18713;BMP280;9485;49.386;8.674;2023-04-03T06:30:16;101446.75;;;7.34
18713;BMP280;9485;49.386;8.674;2023-04-03T06:35:37;101446.78;;;8.26
18713;BMP280;9485;49.386;8.674;2023-04-03T06:40:59;101443.91;;;9.33
18713;BMP280;9485;49.386;8.674;2023-04-03T06:46:22;101450.88;;;10.25
18713;BMP280;9485;49.386;8.674;2023-04-03T06:51:43;101445.78;;;10.91
18713;BMP280;9485;49.386;8.674;2023-04-03T06:57:05;101445.34;;;11.34
18713;BMP280;9485;49.386;8.674;2023-04-03T07:02:27;101462.19;;;12.16
18713;BMP280;9485;49.386;8.674;2023-04-03T07:07:48;101455.47;;;12.89
18713;BMP280;9485;49.386;8.674;2023-04-03T07:13:11;101470.00;;;13.69
18713;BMP280;9485;49.386;8.674;2023-04-03T07:18:32;101484.38;;;14.34
18713;BMP280;9485;49.386;8.674;2023-04-03T07:23:53;101490.94;;;14.85
18713;BMP280;9485;49.386;8.674;2023-04-03T07:29:15;101500.47;;;15.27
18713;BMP280;9485;49.386;8.674;2023-04-03T07:34:36;101502.44;;;15.77
18713;BMP280;9485;49.386;8.674;2023-04-03T07:39:57;101497.16;;;16.38
18713;BMP280;9485;49.386;8.674;2023-04-03T07:45:20;101518.34;;;16.84
18713;BMP280;9485;49.386;8.674;2023-04-03T07:50:42;101516.94;;;17.43
18713;BMP280;9485;49.386;8.674;2023-04-03T07:56:03;101521.09;;;18.02
18713;BMP280;9485;49.386;8.674;2023-04-03T08:01:26;101524.31;;;18.72
18713;BMP280;9485;49.386;8.674;2023-04-03T08:06:46;101526.72;;;19.54
18713;BMP280;9485;49.386;8.674;2023-04-03T08:12:07;101531.81;;;20.25
18713;BMP280;9485;49.386;8.674;2023-04-03T08:17:32;101532.59;;;20.91
18713;BMP280;9485;49.386;8.674;2023-04-03T08:22:54;101539.53;;;21.01
18713;BMP280;9485;49.386;8.674;2023-04-03T08:28:15;101539.38;;;21.12
18713;BMP280;9485;49.386;8.674;2023-04-03T08:33:38;101541.81;;;20.42
18713;BMP280;9485;49.386;8.674;2023-04-03T08:39:01;101542.56;;;18.52
18713;BMP280;9485;49.386;8.674;2023-04-03T08:44:33;101536.16;;;17.92
18713;BMP280;9485;49.386;8.674;2023-04-03T08:50:02;101535.41;;;17.69
18713;BMP280;9485;49.386;8.674;2023-04-03T08:55:27;101541.34;;;17.49
18713;BMP280;9485;49.386;8.674;2023-04-03T09:00:51;101541.09;;;17.64
18713;BMP280;9485;49.386;8.674;2023-04-03T09:06:20;101531.88;;;17.05
18713;BMP280;9485;49.386;8.674;2023-04-03T09:11:54;101544.75;;;16.73
18713;BMP280;9485;49.386;8.674;2023-04-03T09:17:31;101535.91;;;16.60
18713;BMP280;9485;49.386;8.674;2023-04-03T09:22:53;101540.19;;;16.98
18713;BMP280;9485;49.386;8.674;2023-04-03T09:28:15;101532.88;;;16.33
18713;BMP280;9485;49.386;8.674;2023-04-03T09:33:36;101532.34;;;15.62
18713;BMP280;9485;49.386;8.674;2023-04-03T09:39:05;101528.81;;;15.73
18713;BMP280;9485;49.386;8.674;2023-04-03T09:44:30;101508.38;;;17.87
18713;BMP280;9485;49.386;8.674;2023-04-03T09:50:20;101520.00;;;18.38
18713;BMP280;9485;49.386;8.674;2023-04-03T09:55:45;101521.06;;;18.97
18713;BMP280;9485;49.386;8.674;2023-04-03T10:01:10;101524.09;;;21.04
18713;BMP280;9485;49.386;8.674;2023-04-03T10:06:43;101513.94;;;22.15
18713;BMP280;9485;49.386;8.674;2023-04-03T10:12:09;101511.38;;;21.68
18713;BMP280;9485;49.386;8.674;2023-04-03T10:17:50;101510.28;;;20.60
18713;BMP280;9485;49.386;8.674;2023-04-03T10:23:18;101506.31;;;22.18
18713;BMP280;9485;49.386;8.674;2023-04-03T10:28:49;101507.13;;;23.29
18713;BMP280;9485;49.386;8.674;2023-04-03T10:34:23;101518.25;;;23.79
18713;BMP280;9485;49.386;8.674;2023-04-03T10:39:52;101508.66;;;22.58
18713;BMP280;9485;49.386;8.674;2023-04-03T10:45:24;101518.34;;;21.04
18713;BMP280;9485;49.386;8.674;2023-04-03T10:50:57;101512.38;;;19.83
18713;BMP280;9485;49.386;8.674;2023-04-03T10:56:29;101509.31;;;19.46
18713;BMP280;9485;49.386;8.674;2023-04-03T11:01:57;101501.97;;;19.16
18713;BMP280;9485;49.386;8.674;2023-04-03T11:07:23;101509.44;;;19.24
18713;BMP280;9485;49.386;8.674;2023-04-03T11:12:50;101508.16;;;19.25
18713;BMP280;9485;49.386;8.674;2023-04-03T11:18:20;101502.84;;;19.40
18713;BMP280;9485;49.386;8.674;2023-04-03T11:23:43;101499.56;;;20.19
18713;BMP280;9485;49.386;8.674;2023-04-03T11:29:09;101509.88;;;21.30
18713;BMP280;9485;49.386;8.674;2023-04-03T11:34:38;101505.88;;;20.36
18713;BMP280;9485;49.386;8.674;2023-04-03T11:40:06;101469.19;;;19.11
18713;BMP280;9485;49.386;8.674;2023-04-03T11:45:38;101497.97;;;17.95
18713;BMP280;9485;49.386;8.674;2023-04-03T11:51:42;101458.72;;;16.97
18713;BMP280;9485;49.386;8.674;2023-04-03T12:09:54;101468.31;;;15.83
18713;BMP280;9485;49.386;8.674;2023-04-03T12:15:50;101478.97;;;15.26
18713;BMP280;9485;49.386;8.674;2023-04-03T12:21:13;101477.22;;;14.84
18713;BMP280;9485;49.386;8.674;2023-04-03T12:26:46;101472.69;;;14.72
18713;BMP280;9485;49.386;8.674;2023-04-03T12:32:34;101466.38;;;15.07
18713;BMP280;9485;49.386;8.674;2023-04-03T12:38:54;101429.56;;;15.24
18713;BMP280;9485;49.386;8.674;2023-04-03T12:44:40;101441.34;;;16.89
18713;BMP280;9485;49.386;8.674;2023-04-03T12:50:17;101438.19;;;18.75
18713;BMP280;9485;49.386;8.674;2023-04-03T12:55:40;101436.25;;;20.11
18713;BMP280;9485;49.386;8.674;2023-04-03T13:01:10;101443.66;;;19.19
18713;BMP280;9485;49.386;8.674;2023-04-03T13:06:38;101448.31;;;18.08
18713;BMP280;9485;49.386;8.674;2023-04-03T13:12:07;101448.38;;;17.16
18713;BMP280;9485;49.386;8.674;2023-04-03T13:17:38;101446.97;;;16.62
18713;BMP280;9485;49.386;8.674;2023-04-03T13:23:02;101413.03;;;16.11
18713;BMP280;9485;49.386;8.674;2023-04-03T13:28:25;101445.66;;;16.05
18713;BMP280;9485;49.386;8.674;2023-04-03T13:33:57;101425.78;;;15.74
18713;BMP280;9485;49.386;8.674;2023-04-03T13:39:25;101387.38;;;16.06
18713;BMP280;9485;49.386;8.674;2023-04-03T13:44:46;101413.84;;;17.08
18713;BMP280;9485;49.386;8.674;2023-04-03T13:50:19;101422.66;;;16.88
18713;BMP280;9485;49.386;8.674;2023-04-03T13:55:57;101430.88;;;16.06
18713;BMP280;9485;49.386;8.674;2023-04-03T14:01:22;101427.00;;;15.62
18713;BMP280;9485;49.386;8.674;2023-04-03T14:06:49;101403.41;;;16.56
18713;BMP280;9485;49.386;8.674;2023-04-03T14:12:18;101401.13;;;17.64
18713;BMP280;9485;49.386;8.674;2023-04-03T14:17:39;101403.66;;;17.95
18713;BMP280;9485;49.386;8.674;2023-04-03T14:23:03;101398.06;;;17.29
18713;BMP280;9485;49.386;8.674;2023-04-03T14:28:24;101392.56;;;16.82
18713;BMP280;9485;49.386;8.674;2023-04-03T14:33:46;101382.59;;;16.34
18713;BMP280;9485;49.386;8.674;2023-04-03T14:39:15;101371.25;;;16.50
18713;BMP280;9485;49.386;8.674;2023-04-03T14:44:36;101364.56;;;17.08
18713;BMP280;9485;49.386;8.674;2023-04-03T14:49:57;101356.25;;;17.26
18713;BMP280;9485;49.386;8.674;2023-04-03T14:55:23;101352.13;;;17.27
18713;BMP280;9485;49.386;8.674;2023-04-03T15:00:44;101341.75;;;16.86
18713;BMP280;9485;49.386;8.674;2023-04-03T15:06:05;101354.69;;;16.81
18713;BMP280;9485;49.386;8.674;2023-04-03T15:11:27;101346.63;;;16.58
18713;BMP280;9485;49.386;8.674;2023-04-03T15:16:48;101332.50;;;16.22
18713;BMP280;9485;49.386;8.674;2023-04-03T15:22:14;101354.50;;;16.16
18713;BMP280;9485;49.386;8.674;2023-04-03T15:27:38;101363.28;;;16.01
18713;BMP280;9485;49.386;8.674;2023-04-03T15:32:59;101355.78;;;15.57
18713;BMP280;9485;49.386;8.674;2023-04-03T15:38:20;101367.00;;;15.35
18713;BMP280;9485;49.386;8.674;2023-04-03T15:43:43;101332.13;;;15.09
18713;BMP280;9485;49.386;8.674;2023-04-03T15:49:04;101347.69;;;15.13
18713;BMP280;9485;49.386;8.674;2023-04-03T15:54:31;101362.28;;;14.96
18713;BMP280;9485;49.386;8.674;2023-04-03T15:59:54;101357.41;;;14.71
18713;BMP280;9485;49.386;8.674;2023-04-03T16:05:17;101356.91;;;14.47
18713;BMP280;9485;49.386;8.674;2023-04-03T16:10:38;101355.94;;;14.30
18713;BMP280;9485;49.386;8.674;2023-04-03T16:16:02;101361.34;;;14.28
18713;BMP280;9485;49.386;8.674;2023-04-03T16:21:23;101360.75;;;14.44
18713;BMP280;9485;49.386;8.674;2023-04-03T16:26:44;101368.56;;;14.49
18713;BMP280;9485;49.386;8.674;2023-04-03T16:32:07;101357.09;;;14.18
18713;BMP280;9485;49.386;8.674;2023-04-03T16:37:29;101373.69;;;14.05
18713;BMP280;9485;49.386;8.674;2023-04-03T16:42:50;101369.78;;;13.63
18713;BMP280;9485;49.386;8.674;2023-04-03T16:48:12;101370.28;;;13.27
18713;BMP280;9485;49.386;8.674;2023-04-03T16:53:33;101375.47;;;13.00
18713;BMP280;9485;49.386;8.674;2023-04-03T16:58:55;101374.81;;;12.76
18713;BMP280;9485;49.386;8.674;2023-04-03T17:04:20;101349.16;;;12.27
18713;BMP280;9485;49.386;8.674;2023-04-03T17:09:41;101386.28;;;12.29
18713;BMP280;9485;49.386;8.674;2023-04-03T17:15:03;101375.16;;;12.02
18713;BMP280;9485;49.386;8.674;2023-04-03T17:20:25;101382.38;;;11.89
18713;BMP280;9485;49.386;8.674;2023-04-03T17:25:46;101382.19;;;11.69
18713;BMP280;9485;49.386;8.674;2023-04-03T17:31:07;101364.59;;;11.33
18713;BMP280;9485;49.386;8.674;2023-04-03T17:36:31;101392.59;;;11.31
18713;BMP280;9485;49.386;8.674;2023-04-03T17:41:52;101395.19;;;11.11
18713;BMP280;9485;49.386;8.674;2023-04-03T17:47:13;101404.78;;;10.96
18713;BMP280;9485;49.386;8.674;2023-04-03T17:52:42;101404.88;;;10.78
18713;BMP280;9485;49.386;8.674;2023-04-03T17:58:03;101404.09;;;10.59
18713;BMP280;9485;49.386;8.674;2023-04-03T18:03:24;101396.28;;;10.46
18713;BMP280;9485;49.386;8.674;2023-04-03T18:08:49;101414.63;;;10.32
18713;BMP280;9485;49.386;8.674;2023-04-03T18:14:13;101416.06;;;10.19
18713;BMP280;9485;49.386;8.674;2023-04-03T18:19:36;101418.25;;;10.06
18713;BMP280;9485;49.386;8.674;2023-04-03T18:24:58;101408.47;;;9.89
18713;BMP280;9485;49.386;8.674;2023-04-03T18:30:22;101426.63;;;9.79
18713;BMP280;9485;49.386;8.674;2023-04-03T18:35:45;101426.44;;;9.65
18713;BMP280;9485;49.386;8.674;2023-04-03T18:41:07;101428.28;;;9.50
18713;BMP280;9485;49.386;8.674;2023-04-03T18:46:29;101425.56;;;9.37
18713;BMP280;9485;49.386;8.674;2023-04-03T18:51:50;101431.63;;;9.27
18713;BMP280;9485;49.386;8.674;2023-04-03T18:57:12;101432.19;;;9.13
18713;BMP280;9485;49.386;8.674;2023-04-03T19:02:33;101440.63;;;9.04
18713;BMP280;9485;49.386;8.674;2023-04-03T19:07:55;101443.84;;;8.94
18713;BMP280;9485;49.386;8.674;2023-04-03T19:13:18;101431.22;;;8.77
18713;BMP280;9485;49.386;8.674;2023-04-03T19:18:39;101445.16;;;8.80
18713;BMP280;9485;49.386;8.674;2023-04-03T19:23:59;101456.44;;;8.80
18713;BMP280;9485;49.386;8.674;2023-04-03T19:29:21;101461.44;;;8.76
18713;BMP280;9485;49.386;8.674;2023-04-03T19:34:42;101461.22;;;8.71
18713;BMP280;9485;49.386;8.674;2023-04-03T19:40:05;101434.50;;;8.54
18713;BMP280;9485;49.386;8.674;2023-04-03T19:45:27;101459.13;;;8.62
18713;BMP280;9485;49.386;8.674;2023-04-03T19:50:48;101461.16;;;8.62
18713;BMP280;9485;49.386;8.674;2023-04-03T19:56:10;101461.28;;;8.58
18713;BMP280;9485;49.386;8.674;2023-04-03T20:01:32;101463.72;;;8.47
18713;BMP280;9485;49.386;8.674;2023-04-03T20:06:53;101472.06;;;8.38
18713;BMP280;9485;49.386;8.674;2023-04-03T20:12:15;101474.50;;;8.27
18713;BMP280;9485;49.386;8.674;2023-04-03T20:17:38;101464.03;;;8.16
18713;BMP280;9485;49.386;8.674;2023-04-03T20:22:59;101463.59;;;8.05
18713;BMP280;9485;49.386;8.674;2023-04-03T20:28:20;101463.84;;;7.98
18713;BMP280;9485;49.386;8.674;2023-04-03T20:33:42;101459.91;;;7.95
18713;BMP280;9485;49.386;8.674;2023-04-03T20:39:03;101444.00;;;7.80
18713;BMP280;9485;49.386;8.674;2023-04-03T20:44:24;101454.44;;;7.79
18713;BMP280;9485;49.386;8.674;2023-04-03T20:49:46;101443.44;;;7.72
18713;BMP280;9485;49.386;8.674;2023-04-03T20:55:08;101435.22;;;7.65
18713;BMP280;9485;49.386;8.674;2023-04-03T21:00:30;101434.13;;;7.63
18713;BMP280;9485;49.386;8.674;2023-04-03T21:22:58;101428.72;;;7.43
18713;BMP280;9485;49.386;8.674;2023-04-03T21:28:19;101441.44;;;7.36
18713;BMP280;9485;49.386;8.674;2023-04-03T21:33:39;101448.44;;;7.31
18713;BMP280;9485;49.386;8.674;2023-04-03T21:39:02;101437.41;;;7.24
18713;BMP280;9485;49.386;8.674;2023-04-03T21:44:23;101430.34;;;7.20
18713;BMP280;9485;49.386;8.674;2023-04-03T21:49:45;101428.06;;;7.15
18713;BMP280;9485;49.386;8.674;2023-04-03T21:55:09;101428.75;;;7.06
18713;BMP280;9485;49.386;8.674;2023-04-03T22:00:30;101414.25;;;6.95
18713;BMP280;9485;49.386;8.674;2023-04-03T22:05:51;101418.63;;;6.96
18713;BMP280;9485;49.386;8.674;2023-04-03T22:11:15;101426.81;;;6.91
18713;BMP280;9485;49.386;8.674;2023-04-03T22:16:36;101408.06;;;6.88
18713;BMP280;9485;49.386;8.674;2023-04-03T22:21:58;101405.81;;;6.83
18713;BMP280;9485;49.386;8.674;2023-04-03T22:27:23;101420.06;;;6.76
18713;BMP280;9485;49.386;8.674;2023-04-03T22:32:44;101406.13;;;6.72
18713;BMP280;9485;49.386;8.674;2023-04-03T22:38:05;101394.09;;;6.60
18713;BMP280;9485;49.386;8.674;2023-04-03T22:43:29;101402.41;;;6.63
18713;BMP280;9485;49.386;8.674;2023-04-03T22:48:50;101388.94;;;6.58
18713;BMP280;9485;49.386;8.674;2023-04-03T22:54:11;101358.81;;;6.34
18713;BMP280;9485;49.386;8.674;2023-04-03T22:59:33;101386.00;;;6.49
18713;BMP280;9485;49.386;8.674;2023-04-03T23:04:53;101402.13;;;6.45
18713;BMP280;9485;49.386;8.674;2023-04-03T23:10:14;101388.56;;;6.44
18713;BMP280;9485;49.386;8.674;2023-04-03T23:15:37;101384.72;;;6.38
18713;BMP280;9485;49.386;8.674;2023-04-03T23:20:59;101407.63;;;6.36
18713;BMP280;9485;49.386;8.674;2023-04-03T23:26:21;101398.97;;;6.31
18713;BMP280;9485;49.386;8.674;2023-04-03T23:31:43;101404.22;;;6.29
18713;BMP280;9485;49.386;8.674;2023-04-03T23:37:04;101416.75;;;6.24
18713;BMP280;9485;49.386;8.674;2023-04-03T23:42:26;101388.50;;;6.19
18713;BMP280;9485;49.386;8.674;2023-04-03T23:47:48;101401.38;;;6.16
18713;BMP280;9485;49.386;8.674;2023-04-03T23:53:09;101380.59;;;6.14
18713;BMP280;9485;49.386;8.674;2023-04-03T23:58:31;101390.28;;;6.13
